createdAt,value
2023-02-11T00:10:00.604Z,1.66
2023-02-11T00:20:03.039Z,1.72
2023-02-11T00:30:07.374Z,1.69
2023-02-11T00:40:10.299Z,1.67
2023-02-11T00:50:14.170Z,1.62
2023-02-11T01:00:17.024Z,1.56
2023-02-11T01:10:20.903Z,0.61
2023-02-11T01:20:24.455Z,0.39
2023-02-11T01:30:28.205Z,0.70
2023-02-11T01:40:30.594Z,0.56
2023-02-11T01:50:34.445Z,0.78
2023-02-11T02:00:38.099Z,0.74
2023-02-11T02:10:44.087Z,0.81
2023-02-11T02:21:07.422Z,0.86
2023-02-11T02:31:24.755Z,0.94
2023-02-11T02:41:30.798Z,1.05
2023-02-11T02:51:43.457Z,1.06
2023-02-11T03:01:51.567Z,1.10
2023-02-11T03:11:54.099Z,1.08
2023-02-11T03:21:58.609Z,1.19
2023-02-11T03:32:05.483Z,1.17
2023-02-11T03:42:10.825Z,1.09
2023-02-11T03:52:13.860Z,1.03
2023-02-11T04:02:17.714Z,1.05
2023-02-11T04:12:20.468Z,0.87
2023-02-11T04:22:24.300Z,0.19
2023-02-11T04:32:26.780Z,0.51
2023-02-11T04:42:30.617Z,0.50
2023-02-11T04:52:33.083Z,0.65
2023-02-11T05:02:36.876Z,0.92
2023-02-11T05:12:39.316Z,0.88
2023-02-11T05:22:43.110Z,1.05
2023-02-11T05:32:45.592Z,1.10
2023-02-11T05:42:49.367Z,1.01
2023-02-11T05:52:51.807Z,0.96
2023-02-11T06:02:55.885Z,0.99
2023-02-11T06:12:58.364Z,0.87
2023-02-11T06:23:02.139Z,0.96
2023-02-11T06:33:04.915Z,1.08
2023-02-11T06:43:08.754Z,1.24
2023-02-11T06:53:11.164Z,1.41
2023-02-11T07:03:14.997Z,1.53
2023-02-11T07:13:17.478Z,1.55
2023-02-11T07:23:21.416Z,1.63
2023-02-11T07:33:23.982Z,1.53
2023-02-11T07:43:27.828Z,1.71
2023-02-11T07:53:30.326Z,1.84
2023-02-11T08:03:34.701Z,1.99
2023-02-11T08:13:37.363Z,2.15
2023-02-11T08:23:41.932Z,2.30
2023-02-11T08:33:44.827Z,2.56
2023-02-11T08:43:49.339Z,2.63
2023-02-11T08:53:52.216Z,3.05
2023-02-11T09:03:56.357Z,3.10
2023-02-11T09:13:58.831Z,3.13
2023-02-11T09:24:02.778Z,3.22
2023-02-11T09:34:06.074Z,3.42
2023-02-11T09:44:18.489Z,3.66
2023-02-11T09:54:24.398Z,4.12
2023-02-11T10:04:38.513Z,4.45
2023-02-11T10:14:53.869Z,4.84
2023-02-11T10:25:00.098Z,5.27
2023-02-11T10:35:04.099Z,5.49
2023-02-11T10:45:14.527Z,6.08
2023-02-11T10:55:18.099Z,6.78
2023-02-11T11:05:25.008Z,7.28
2023-02-11T11:15:28.165Z,7.57
2023-02-11T11:25:32.157Z,8.39
2023-02-11T11:35:34.601Z,8.91
2023-02-11T11:45:38.373Z,9.89
2023-02-11T11:55:42.712Z,10.70
2023-02-11T12:05:51.301Z,11.79
2023-02-11T12:15:58.126Z,12.37
2023-02-11T12:26:08.441Z,13.55
2023-02-11T12:36:13.914Z,13.30
2023-02-11T12:46:26.802Z,12.55
2023-02-11T12:56:33.372Z,14.79
2023-02-11T13:06:38.734Z,15.22
2023-02-11T13:16:42.280Z,15.08
2023-02-11T13:26:49.281Z,13.82
2023-02-11T13:36:55.895Z,15.06
2023-02-11T13:47:01.396Z,14.89
2023-02-11T13:57:22.815Z,14.46
2023-02-11T14:07:48.481Z,14.15
2023-02-11T14:17:52.359Z,14.08
2023-02-11T14:27:59.124Z,14.13
2023-02-11T14:38:07.388Z,13.75
2023-02-11T14:48:16.993Z,13.80
2023-02-11T14:58:20.988Z,13.47
2023-02-11T15:08:26.740Z,12.94
2023-02-11T15:18:32.654Z,12.18
2023-02-11T15:28:36.524Z,11.18
2023-02-11T15:38:39.065Z,10.88
2023-02-11T15:48:44.940Z,10.40
2023-02-11T15:58:48.850Z,9.92
2023-02-11T16:09:00.444Z,9.32
2023-02-11T16:19:05.965Z,9.16
2023-02-11T16:29:12.331Z,8.68
2023-02-11T16:39:16.692Z,8.47
2023-02-11T16:49:22.673Z,7.90
2023-02-11T16:59:25.150Z,7.57
2023-02-11T17:09:31.134Z,7.36
2023-02-11T17:19:33.728Z,7.06
2023-02-11T17:29:37.678Z,6.81
2023-02-11T17:39:40.634Z,6.54
2023-02-11T17:49:44.391Z,6.48
2023-02-11T17:59:46.924Z,6.35
2023-02-11T18:09:50.662Z,6.25
2023-02-11T18:19:56.143Z,6.37
2023-02-11T18:30:00.183Z,6.38
2023-02-11T18:40:02.617Z,6.45
2023-02-11T18:50:07.311Z,6.68
2023-02-11T19:00:10.991Z,6.61
2023-02-11T19:10:14.778Z,6.56
2023-02-11T19:20:17.504Z,6.62
2023-02-11T19:30:21.455Z,6.73
2023-02-11T19:40:23.871Z,6.70
2023-02-11T19:50:27.660Z,6.73
2023-02-11T20:00:30.070Z,6.53
2023-02-11T20:10:35.227Z,6.41
2023-02-11T20:20:39.046Z,6.49
2023-02-11T20:30:42.850Z,6.46
2023-02-11T20:40:45.274Z,6.46
2023-02-11T20:50:49.062Z,6.47
2023-02-11T21:00:51.513Z,6.36
2023-02-11T21:10:55.327Z,6.36
2023-02-11T21:20:58.127Z,6.32
2023-02-11T21:31:02.274Z,6.43
2023-02-11T21:41:05.520Z,6.39
2023-02-11T21:51:10.186Z,6.47
2023-02-11T22:01:13.742Z,6.24
2023-02-11T22:11:17.697Z,6.31
2023-02-11T22:21:21.233Z,6.27
2023-02-11T22:31:26.208Z,6.32
2023-02-11T22:41:28.848Z,6.16
2023-02-11T22:51:33.008Z,6.10
2023-02-11T23:01:36.147Z,6.01
2023-02-11T23:11:40.397Z,6.03
2023-02-11T23:21:42.842Z,6.07
2023-02-11T23:31:46.766Z,6.10
2023-02-11T23:41:49.301Z,6.01
2023-02-11T23:51:53.100Z,6.02
